Time;durP1;ratioP1;P1;durP2;ratioP2;P2;SDS_P1;SDS_P2;PMS_P1;PMS_P2;Temp;Humidity;BMP_temperature;BMP_pressure;BME280_temperature;BME280_humidity;BME280_pressure;Samples;Min_cycle;Max_cycle;Signal;HPM_P1;HPM_P2
2021/11/02 00:00:51;;;;;;;38.60;24.00;;;;;;;;;;5037055;28;20029;-65
2021/11/02 00:03:17;;;;;;;37.70;22.77;;;;;;;;;;5054804;28;20071;-64
2021/11/02 00:05:43;;;;;;;33.97;19.73;;;;;;;;;;5055062;28;20078;-65
2021/11/02 00:08:08;;;;;;;34.33;20.40;;;;;;;;;;5036926;28;20526;-65
2021/11/02 00:10:36;;;;;;;33.95;22.33;;;;;;;;;;5054680;28;20025;-69
2021/11/02 00:13:03;;;;;;;30.42;19.70;;;;;;;;;;5054933;28;20551;-69
2021/11/02 00:15:30;;;;;;;27.98;18.52;;;;;;;;;;5054688;28;20119;-71
2021/11/02 00:18:05;;;;;;;33.97;20.60;;;;;;;;;;5054268;28;20028;-70
2021/11/02 00:20:31;;;;;;;32.92;20.63;;;;;;;;;;5054747;28;20106;-70
2021/11/02 00:22:58;;;;;;;43.03;24.13;;;;;;;;;;5054328;28;20032;-71
2021/11/02 00:25:25;;;;;;;34.95;21.92;;;;;;;;;;5054219;28;20048;-65
2021/11/02 00:27:50;;;;;;;35.13;22.35;;;;;;;;;;5036582;28;20021;-65
2021/11/02 00:30:17;;;;;;;45.67;25.45;;;;;;;;;;5054238;28;20528;-64
2021/11/02 00:32:44;;;;;;;54.17;31.48;;;;;;;;;;5054291;28;20055;-64
2021/11/02 00:35:11;;;;;;;40.40;25.55;;;;;;;;;;5054313;28;20039;-64
2021/11/02 00:37:37;;;;;;;34.00;20.40;;;;;;;;;;5036207;28;20021;-65
2021/11/02 00:40:06;;;;;;;27.83;17.00;;;;;;;;;;5053933;28;20033;-65
2021/11/02 00:42:54;;;;;;;24.90;15.52;;;;;;;;;;5053912;28;20028;-65
2021/11/02 00:45:26;;;;;;;31.17;19.02;;;;;;;;;;5053776;28;20067;-65
2021/11/02 00:47:52;;;;;;;34.78;20.58;;;;;;;;;;5053946;28;20108;-65
2021/11/02 00:50:19;;;;;;;43.00;21.83;;;;;;;;;;5035755;28;20013;-65
2021/11/02 00:52:45;;;;;;;41.92;20.63;;;;;;;;;;5053406;28;20132;-65
2021/11/02 00:55:10;;;;;;;40.95;20.80;;;;;;;;;;5053819;28;20219;-65
2021/11/02 00:57:37;;;;;;;30.25;17.73;;;;;;;;;;5036015;28;20029;-65
2021/11/02 01:00:04;;;;;;;35.30;19.27;;;;;;;;;;5035684;28;20112;-65
2021/11/02 01:02:30;;;;;;;38.65;20.88;;;;;;;;;;5019067;28;20072;-65
2021/11/02 01:04:55;;;;;;;37.95;20.95;;;;;;;;;;5053738;28;20052;-65
2021/11/02 01:07:21;;;;;;;29.77;17.30;;;;;;;;;;5035754;28;20028;-69
2021/11/02 01:09:46;;;;;;;32.53;19.10;;;;;;;;;;5035733;28;20009;-69
2021/11/02 01:12:12;;;;;;;33.38;20.02;;;;;;;;;;5035159;28;20090;-69
2021/11/02 01:14:39;;;;;;;39.17;21.52;;;;;;;;;;5019661;28;20021;-69
2021/11/02 01:17:09;;;;;;;35.90;22.33;;;;;;;;;;5035639;28;20545;-69
2021/11/02 01:19:35;;;;;;;36.05;20.08;;;;;;;;;;5035778;28;20112;-69
2021/11/02 01:22:01;;;;;;;32.38;20.23;;;;;;;;;;5035411;28;20374;-69
2021/11/02 01:24:27;;;;;;;29.00;18.23;;;;;;;;;;5019319;28;20373;-69
2021/11/02 01:26:54;;;;;;;24.75;16.70;;;;;;;;;;5035513;28;20031;-65
2021/11/02 01:29:22;;;;;;;26.00;16.70;;;;;;;;;;5035771;28;20013;-69
2021/11/02 01:31:49;;;;;;;27.17;16.90;;;;;;;;;;5035551;28;20029;-70
2021/11/02 01:34:16;;;;;;;28.70;16.35;;;;;;;;;;5035256;28;20025;-65
2021/11/02 01:36:45;;;;;;;27.70;17.27;;;;;;;;;;5035540;28;20078;-65
2021/11/02 01:39:13;;;;;;;26.45;17.10;;;;;;;;;;5035141;28;20029;-69
2021/11/02 01:41:39;;;;;;;27.05;17.00;;;;;;;;;;5035192;28;20511;-67
2021/11/02 01:44:06;;;;;;;23.15;15.45;;;;;;;;;;5035147;28;20017;-67
2021/11/02 01:46:33;;;;;;;25.27;15.73;;;;;;;;;;5035286;28;20029;-68
2021/11/02 01:49:00;;;;;;;22.75;15.55;;;;;;;;;;5035432;28;20013;-69
2021/11/02 01:51:29;;;;;;;21.58;14.43;;;;;;;;;;5035538;28;20017;-70
2021/11/02 01:53:55;;;;;;;23.33;15.18;;;;;;;;;;5035315;28;20029;-70
2021/11/02 01:56:25;;;;;;;23.77;14.85;;;;;;;;;;5035365;28;20029;-69
2021/11/02 01:58:53;;;;;;;21.23;14.77;;;;;;;;;;5053061;28;20484;-70
2021/11/02 02:01:39;;;;;;;20.50;14.25;;;;;;;;;;5035299;28;20501;-69
2021/11/02 02:04:06;;;;;;;18.90;13.40;;;;;;;;;;5038170;28;20048;-65
2021/11/02 02:06:37;;;;;;;22.50;14.00;;;;;;;;;;5039202;28;20444;-65
2021/11/02 02:09:06;;;;;;;17.60;12.32;;;;;;;;;;5038784;28;20029;-63
2021/11/02 02:11:43;;;;;;;22.63;14.05;;;;;;;;;;5039026;28;20503;-62
2021/11/02 02:14:17;;;;;;;25.83;16.00;;;;;;;;;;5038821;28;20029;-63
2021/11/02 02:16:46;;;;;;;30.15;18.70;;;;;;;;;;5038741;28;20507;-68
2021/11/02 02:19:23;;;;;;;40.63;22.70;;;;;;;;;;5039189;28;20484;-68
2021/11/02 02:21:59;;;;;;;44.95;24.38;;;;;;;;;;5038946;28;20033;-68
2021/11/02 02:24:43;;;;;;;44.38;23.60;;;;;;;;;;5038904;28;20028;-68
2021/11/02 02:27:15;;;;;;;;;;;;;;;;;;5039233;28;20389;-68
2021/11/02 02:29:43;;;;;;;31.45;18.63;;;;;;;;;;5057030;28;19909;-66
2021/11/02 02:32:15;;;;;;;26.83;16.50;;;;;;;;;;5038908;28;20017;-66
2021/11/02 02:34:41;;;;;;;31.83;19.35;;;;;;;;;;5038917;28;20044;-63
2021/11/02 02:37:08;;;;;;;26.55;17.20;;;;;;;;;;5038902;28;20039;-63
2021/11/02 02:39:33;;;;;;;27.58;17.88;;;;;;;;;;5038467;28;20029;-67
2021/11/02 02:42:12;;;;;;;24.95;16.35;;;;;;;;;;5038459;28;20028;-66
2021/11/02 02:44:45;;;;;;;24.45;15.55;;;;;;;;;;5022962;28;20033;-67
2021/11/02 02:47:10;;;;;;;23.55;14.70;;;;;;;;;;5038455;28;20029;-67
2021/11/02 02:49:39;;;;;;;23.30;15.45;;;;;;;;;;5038878;28;20044;-67
2021/11/02 02:52:06;;;;;;;22.40;14.55;;;;;;;;;;5056072;28;20570;-66
2021/11/02 02:54:32;;;;;;;20.70;14.68;;;;;;;;;;5056491;28;20155;-66
2021/11/02 02:57:01;;;;;;;20.75;13.57;;;;;;;;;;5038370;28;20036;-66
2021/11/02 02:59:27;;;;;;;18.42;12.90;;;;;;;;;;5021796;28;20033;-66
2021/11/02 06:33:00;;;;;;;18.80;12.85;;;;;;;;;;5033371;28;20113;-61
2021/11/02 07:24:48;;;;;;;24.92;18.63;;;;;;;;;;5036161;28;20125;-63
2021/11/02 08:48:56;;;;;;;22.30;17.08;;;;;;;;;;5034013;28;20088;-65
2021/11/02 08:51:22;;;;;;;23.20;17.90;;;;;;;;;;5034478;28;20412;-65
2021/11/02 08:53:48;;;;;;;25.80;17.52;;;;;;;;;;5033764;28;20026;-65
2021/11/02 08:56:18;;;;;;;23.73;17.17;;;;;;;;;;5033665;28;20497;-65
2021/11/02 08:58:48;;;;;;;22.35;15.68;;;;;;;;;;5033080;28;20029;-65
2021/11/02 09:01:16;;;;;;;20.08;14.63;;;;;;;;;;5033618;28;20037;-71
2021/11/02 09:03:49;;;;;;;24.67;15.95;;;;;;;;;;5033591;28;20026;-70
2021/11/02 09:09:50;;;;;;;17.77;13.25;;;;;;;;;;5026367;28;20110;-71
2021/11/02 09:15:51;;;;;;;14.15;11.25;;;;;;;;;;5034152;28;20036;-71
2021/11/02 09:21:52;;;;;;;14.50;12.07;;;;;;;;;;5033908;28;20093;-71
2021/11/02 09:27:53;;;;;;;17.02;12.40;;;;;;;;;;5033963;28;20025;-70
2021/11/02 09:33:53;;;;;;;28.15;20.00;;;;;;;;;;5033904;28;20500;-71
2021/11/02 09:39:54;;;;;;;45.85;32.05;;;;;;;;;;5033812;28;20032;-71
2021/11/02 09:46:08;;;;;;;33.75;19.27;;;;;;;;;;5033668;28;20087;-70
2021/11/02 09:52:17;;;;;;;53.90;27.63;;;;;;;;;;5033693;28;20073;-71
2021/11/02 10:02:26;;;;;;;36.60;25.42;;;;;;;;;;5033275;28;20042;-71
2021/11/02 10:19:26;;;;;;;20.42;15.77;;;;;;;;;;4992145;28;20126;-68
2021/11/02 10:29:29;;;;;;;27.33;19.55;;;;;;;;;;4995555;28;20106;-69
2021/11/02 10:35:42;;;;;;;24.10;16.20;;;;;;;;;;4995717;28;20406;-68
2021/11/02 10:45:58;;;;;;;20.45;14.65;;;;;;;;;;5036980;28;20032;-69
2021/11/02 10:52:03;;;;;;;17.88;13.98;;;;;;;;;;5036672;28;20232;-68
2021/11/02 11:02:26;;;;;;;16.02;11.77;;;;;;;;;;5036569;28;20036;-68
2021/11/02 11:08:44;;;;;;;21.20;12.48;;;;;;;;;;5036564;28;20048;-68
2021/11/02 11:14:46;;;;;;;13.68;10.73;;;;;;;;;;5036450;28;20079;-69
2021/11/02 11:20:49;;;;;;;50.53;22.90;;;;;;;;;;5036057;28;20462;-69
2021/11/02 11:26:52;;;;;;;26.90;16.17;;;;;;;;;;5036228;28;20067;-69
2021/11/02 11:36:28;;;;;;;14.15;10.35;;;;;;;;;;5035674;28;20032;-69
2021/11/02 11:42:30;;;;;;;13.38;10.60;;;;;;;;;;5035738;28;20144;-69
2021/11/02 11:48:31;;;;;;;15.90;12.35;;;;;;;;;;5035551;28;20032;-69
2021/11/02 11:58:11;;;;;;;14.00;11.63;;;;;;;;;;5038976;28;20028;-66
2021/11/02 12:00:39;;;;;;;16.88;14.57;;;;;;;;;;5054719;28;20033;-65
2021/11/02 12:03:19;;;;;;;16.20;14.52;;;;;;;;;;5054637;28;20029;-65
2021/11/02 12:05:48;;;;;;;14.48;12.60;;;;;;;;;;5054309;28;20035;-65
2021/11/02 12:08:15;;;;;;;14.25;12.73;;;;;;;;;;5054382;28;20112;-65
2021/11/02 12:14:24;;;;;;;22.67;17.08;;;;;;;;;;5055199;28;20119;-65
2021/11/02 12:20:28;;;;;;;16.75;12.75;;;;;;;;;;5054950;28;20040;-65
2021/11/02 12:26:39;;;;;;;16.75;13.98;;;;;;;;;;5054972;28;20111;-63
2021/11/02 12:36:54;;;;;;;15.90;12.40;;;;;;;;;;5013026;28;20049;-65
2021/11/02 12:42:55;;;;;;;15.73;12.18;;;;;;;;;;5012729;28;20081;-66
2021/11/02 12:52:58;;;;;;;20.98;17.13;;;;;;;;;;5012832;28;20063;-65
2021/11/02 13:02:41;;;;;;;18.90;15.00;;;;;;;;;;5054334;28;20389;-65
2021/11/02 13:08:46;;;;;;;16.65;12.52;;;;;;;;;;5054431;28;20488;-65
2021/11/02 13:14:50;;;;;;;14.93;11.82;;;;;;;;;;5054372;28;20139;-65
2021/11/02 13:20:58;;;;;;;13.80;11.93;;;;;;;;;;5054036;28;20071;-65
2021/11/02 14:04:07;;;;;;;13.50;10.95;;;;;;;;;;5074354;28;19985;-65
2021/11/02 14:06:53;;;;;;;11.50;9.95;;;;;;;;;;5076993;28;20511;-65
2021/11/02 14:09:26;;;;;;;11.20;9.85;;;;;;;;;;5076223;28;20040;-65
2021/11/02 14:11:51;;;;;;;12.27;10.02;;;;;;;;;;5058843;28;20041;-65
2021/11/02 14:17:52;;;;;;;13.93;10.43;;;;;;;;;;5077458;28;20078;-65
2021/11/02 14:27:47;;;;;;;12.85;9.25;;;;;;;;;;5015663;28;20544;-65
2021/11/02 14:30:23;;;;;;;12.77;10.00;;;;;;;;;;5014790;28;20038;-65
2021/11/02 14:32:50;;;;;;;12.40;9.82;;;;;;;;;;5014563;28;20034;-65
2021/11/02 14:35:34;;;;;;;12.48;9.63;;;;;;;;;;5014637;28;20397;-65
2021/11/02 14:38:02;;;;;;;12.05;9.63;;;;;;;;;;5014909;28;20034;-65
2021/11/02 14:40:41;;;;;;;13.02;10.50;;;;;;;;;;5014593;28;20030;-65
2021/11/02 15:00:43;;;;;;;13.82;10.43;;;;;;;;;;5014591;28;20417;-65
2021/11/02 15:09:55;;;;;;;13.93;10.68;;;;;;;;;;5014052;28;20114;-65
2021/11/02 15:15:55;;;;;;;12.65;9.95;;;;;;;;;;5014632;28;20065;-65
2021/11/02 15:21:58;;;;;;;16.25;12.38;;;;;;;;;;5014201;28;20430;-65
2021/11/02 15:28:00;;;;;;;19.25;14.70;;;;;;;;;;5076167;28;20116;-65
2021/11/02 15:44:56;;;;;;;27.83;20.25;;;;;;;;;;5076114;28;20039;-66
2021/11/02 15:50:58;;;;;;;41.03;27.08;;;;;;;;;;5072363;28;20491;-66
2021/11/02 15:53:26;;;;;;;53.55;31.83;;;;;;;;;;5071568;28;20048;-65
2021/11/02 15:55:56;;;;;;;45.42;29.13;;;;;;;;;;5071733;28;20033;-66
2021/11/02 15:58:23;;;;;;;31.45;22.25;;;;;;;;;;5071635;28;20131;-65
2021/11/02 16:00:48;;;;;;;31.48;19.63;;;;;;;;;;5071775;28;20494;-66
2021/11/02 16:03:14;;;;;;;30.35;20.88;;;;;;;;;;5071560;28;20036;-65
2021/11/02 16:05:44;;;;;;;40.30;26.75;;;;;;;;;;5052573;28;20120;-66
2021/11/02 16:08:18;;;;;;;68.55;52.10;;;;;;;;;;5071503;28;20041;-65
2021/11/02 16:10:53;;;;;;;58.30;45.53;;;;;;;;;;5071220;28;20131;-65
2021/11/02 16:13:26;;;;;;;97.38;64.25;;;;;;;;;;5053170;28;20048;-64
2021/11/02 16:15:52;;;;;;;355.15;182.00;;;;;;;;;;5071258;28;20048;-64
2021/11/02 16:18:21;;;;;;;317.80;160.57;;;;;;;;;;5071104;28;20391;-65
2021/11/02 16:20:47;;;;;;;139.23;74.97;;;;;;;;;;5070933;28;20040;-65
2021/11/02 16:23:18;;;;;;;69.50;38.80;;;;;;;;;;5070606;28;20043;-64
2021/11/02 16:25:48;;;;;;;31.10;22.35;;;;;;;;;;5071042;28;20147;-64
2021/11/02 16:28:21;;;;;;;17.73;13.82;;;;;;;;;;5071165;28;20127;-64
2021/11/02 16:30:47;;;;;;;14.38;12.57;;;;;;;;;;5071181;28;20037;-64
2021/11/02 16:33:13;;;;;;;16.52;14.25;;;;;;;;;;5070985;28;20479;-64
2021/11/02 16:35:40;;;;;;;25.75;21.15;;;;;;;;;;5070515;28;20395;-66
2021/11/02 16:38:26;;;;;;;27.55;21.13;;;;;;;;;;5071093;28;20538;-64
2021/11/02 16:41:17;;;;;;;30.23;22.42;;;;;;;;;;5035147;28;20080;-64
2021/11/02 16:43:53;;;;;;;55.78;35.58;;;;;;;;;;5070834;28;20048;-64
2021/11/02 16:46:23;;;;;;;49.28;32.13;;;;;;;;;;5070834;28;20086;-64
2021/11/02 16:48:50;;;;;;;;;;;;;;;;;;5071370;28;20040;-64
2021/11/02 16:51:16;;;;;;;46.97;29.55;;;;;;;;;;5070798;28;19908;-64
2021/11/02 16:53:42;;;;;;;49.80;29.33;;;;;;;;;;5070657;28;20036;-64
2021/11/02 16:56:15;;;;;;;49.42;31.35;;;;;;;;;;5070587;28;20036;-64
2021/11/02 16:58:45;;;;;;;57.40;34.00;;;;;;;;;;5070858;28;20040;-65
2021/11/02 17:01:11;;;;;;;;;;;;;;;;;;5070989;28;20113;-64
2021/11/02 17:03:36;;;;;;;84.95;46.88;;;;;;;;;;5069838;28;20315;-64
2021/11/02 17:06:09;;;;;;;101.15;58.80;;;;;;;;;;5069669;28;20025;-65
2021/11/02 17:08:36;;;;;;;75.25;44.97;;;;;;;;;;5070373;28;20025;-66
2021/11/02 17:11:01;;;;;;;68.72;39.47;;;;;;;;;;5070363;28;20557;-65
2021/11/02 17:13:33;;;;;;;69.68;36.28;;;;;;;;;;5070026;28;20033;-66
2021/11/02 17:16:02;;;;;;;55.83;35.97;;;;;;;;;;5070280;28;20123;-66
2021/11/02 17:18:28;;;;;;;44.17;30.70;;;;;;;;;;5070473;28;20036;-66
2021/11/02 17:20:59;;;;;;;27.10;18.92;;;;;;;;;;5052202;28;20055;-66
2021/11/02 17:23:25;;;;;;;24.88;17.25;;;;;;;;;;5070012;28;20094;-66
2021/11/02 17:29:27;;;;;;;28.10;20.13;;;;;;;;;;5074113;28;20087;-66
2021/11/02 17:35:28;;;;;;;24.73;16.73;;;;;;;;;;5073654;28;20028;-66
2021/11/02 17:41:29;;;;;;;23.75;16.50;;;;;;;;;;5073765;28;20079;-66
2021/11/02 17:47:31;;;;;;;28.10;18.02;;;;;;;;;;5073510;28;20408;-65
2021/11/02 17:53:33;;;;;;;30.50;19.55;;;;;;;;;;5073755;28;20051;-66
2021/11/02 17:59:48;;;;;;;29.20;18.88;;;;;;;;;;5073660;28;20098;-66
2021/11/02 18:09:50;;;;;;;22.83;16.42;;;;;;;;;;5073694;28;20090;-66
2021/11/02 18:15:52;;;;;;;20.40;14.70;;;;;;;;;;5073283;28;20094;-66
2021/11/02 18:21:53;;;;;;;21.33;14.77;;;;;;;;;;5073364;28;20066;-66
2021/11/02 18:27:56;;;;;;;18.63;14.20;;;;;;;;;;5073440;28;20043;-66
2021/11/02 18:33:57;;;;;;;20.75;14.25;;;;;;;;;;5073470;28;20179;-66
2021/11/02 19:33:51;;;;;;;19.10;10.90;;;;;;;;;;5068700;28;20043;-64
2021/11/02 19:36:17;;;;;;;19.40;13.13;;;;;;;;;;5071439;28;20075;-64
2021/11/02 19:38:43;;;;;;;19.70;12.38;;;;;;;;;;5071607;28;20028;-64
2021/11/02 19:41:08;;;;;;;21.15;12.82;;;;;;;;;;5071507;28;20550;-64
2021/11/02 19:43:36;;;;;;;20.02;13.27;;;;;;;;;;5071321;28;20032;-64
2021/11/02 19:46:02;;;;;;;21.58;12.70;;;;;;;;;;5071557;28;20492;-64
2021/11/02 19:48:27;;;;;;;23.55;14.45;;;;;;;;;;5071268;28;20033;-64
2021/11/02 19:50:53;;;;;;;24.23;14.30;;;;;;;;;;5071275;28;20059;-64
2021/11/02 19:53:21;;;;;;;24.85;14.27;;;;;;;;;;5071217;28;20020;-64
2021/11/02 19:55:48;;;;;;;24.58;14.38;;;;;;;;;;5070825;28;20036;-64
2021/11/02 19:58:13;;;;;;;24.00;14.43;;;;;;;;;;5071407;28;20032;-64
2021/11/02 20:00:40;;;;;;;24.98;15.00;;;;;;;;;;5071828;28;20044;-64
2021/11/02 20:03:06;;;;;;;25.05;14.20;;;;;;;;;;5071596;28;20163;-64
2021/11/02 20:05:31;;;;;;;23.55;15.30;;;;;;;;;;5071071;28;20127;-64
2021/11/02 20:08:04;;;;;;;25.95;15.40;;;;;;;;;;5071122;28;20024;-64
2021/11/02 20:10:30;;;;;;;37.83;18.05;;;;;;;;;;5071392;28;20044;-69
2021/11/02 20:13:01;;;;;;;30.75;16.85;;;;;;;;;;5069783;28;20035;-70
2021/11/02 20:15:26;;;;;;;22.35;13.43;;;;;;;;;;5069683;28;20044;-69
2021/11/02 20:17:52;;;;;;;20.50;13.88;;;;;;;;;;5052635;28;20032;-69
2021/11/02 20:20:20;;;;;;;19.67;14.07;;;;;;;;;;5070668;28;20043;-70
2021/11/02 20:22:46;;;;;;;17.00;13.43;;;;;;;;;;5070950;28;20028;-69
2021/11/02 20:25:12;;;;;;;17.80;12.88;;;;;;;;;;5070655;28;20119;-69
2021/11/02 20:27:38;;;;;;;17.45;12.85;;;;;;;;;;5053081;28;20107;-69
2021/11/02 20:30:05;;;;;;;20.65;13.27;;;;;;;;;;5069745;28;20043;-69
2021/11/02 20:32:31;;;;;;;19.13;13.57;;;;;;;;;;5069348;28;20037;-69
2021/11/02 20:34:57;;;;;;;17.90;13.77;;;;;;;;;;5069182;28;20106;-69
2021/11/02 20:37:25;;;;;;;16.42;13.40;;;;;;;;;;5069650;28;20123;-69
2021/11/02 20:43:29;;;;;;;18.20;13.40;;;;;;;;;;5074428;28;20034;-67
2021/11/02 20:49:33;;;;;;;18.85;12.95;;;;;;;;;;5074595;28;20499;-68
2021/11/02 20:55:34;;;;;;;19.40;13.57;;;;;;;;;;5074207;28;20051;-68
2021/11/02 21:01:35;;;;;;;18.73;12.93;;;;;;;;;;5074276;28;20059;-68
2021/11/02 21:07:38;;;;;;;21.67;15.85;;;;;;;;;;5073680;28;20086;-69
2021/11/02 21:13:39;;;;;;;25.70;17.35;;;;;;;;;;5074195;28;20035;-69
2021/11/02 21:19:42;;;;;;;30.73;19.48;;;;;;;;;;5074123;28;20412;-70
2021/11/02 21:25:43;;;;;;;33.03;21.20;;;;;;;;;;5074005;28;20106;-70
2021/11/02 21:31:44;;;;;;;30.73;21.05;;;;;;;;;;5073942;28;20127;-70
2021/11/02 21:34:10;;;;;;;30.40;21.42;;;;;;;;;;5072975;28;20147;-64
2021/11/02 21:36:35;;;;;;;31.85;22.35;;;;;;;;;;5072957;28;20032;-64
2021/11/02 21:39:02;;;;;;;36.13;23.40;;;;;;;;;;5072342;28;20068;-63
2021/11/02 21:41:47;;;;;;;32.58;22.92;;;;;;;;;;5072266;28;20032;-69
2021/11/02 21:44:18;;;;;;;31.08;20.98;;;;;;;;;;5073416;28;20127;-68
2021/11/02 21:46:46;;;;;;;30.98;22.00;;;;;;;;;;5073245;28;20127;-69
2021/11/02 21:49:35;;;;;;;35.50;24.63;;;;;;;;;;5073609;28;20472;-69
2021/11/02 21:52:02;;;;;;;35.83;23.73;;;;;;;;;;5073017;28;20392;-69
2021/11/02 21:54:28;;;;;;;37.00;23.95;;;;;;;;;;5073308;28;20032;-69
2021/11/02 21:56:58;;;;;;;34.05;22.92;;;;;;;;;;5073242;28;20062;-68
2021/11/02 21:59:33;;;;;;;31.48;22.38;;;;;;;;;;5073193;28;20037;-69
2021/11/02 22:01:59;;;;;;;33.20;21.45;;;;;;;;;;5073145;28;20486;-69
2021/11/02 22:04:25;;;;;;;36.67;24.63;;;;;;;;;;5054962;28;20115;-64
2021/11/02 22:06:50;;;;;;;37.15;24.27;;;;;;;;;;5072905;28;20488;-64
2021/11/02 22:09:16;;;;;;;39.50;24.17;;;;;;;;;;5072972;28;20029;-64
2021/11/02 22:11:41;;;;;;;37.22;24.30;;;;;;;;;;5073004;28;20028;-64
2021/11/02 22:14:07;;;;;;;39.15;24.40;;;;;;;;;;5072904;28;20453;-65
2021/11/02 22:16:34;;;;;;;37.97;23.77;;;;;;;;;;5073007;28;20037;-69
2021/11/02 22:19:00;;;;;;;38.30;24.85;;;;;;;;;;5073963;28;20147;-63
2021/11/02 22:21:26;;;;;;;37.15;22.75;;;;;;;;;;5058812;28;20037;-63
2021/11/02 22:23:51;;;;;;;36.58;22.67;;;;;;;;;;5077044;28;20028;-69
2021/11/02 22:26:19;;;;;;;35.83;24.05;;;;;;;;;;5076978;28;20090;-68
2021/11/02 22:28:45;;;;;;;35.35;22.02;;;;;;;;;;5076929;28;20399;-68
2021/11/02 22:31:11;;;;;;;32.70;22.70;;;;;;;;;;5076935;28;20051;-68
2021/11/02 22:33:37;;;;;;;39.55;23.67;;;;;;;;;;5076266;28;20048;-68
2021/11/02 22:36:04;;;;;;;34.78;23.25;;;;;;;;;;5076753;28;20062;-64
2021/11/02 22:38:29;;;;;;;40.55;24.95;;;;;;;;;;5076377;28;20062;-68
2021/11/02 22:40:55;;;;;;;39.75;24.63;;;;;;;;;;5076348;28;20036;-68
2021/11/02 22:43:20;;;;;;;39.22;24.30;;;;;;;;;;5076388;28;20569;-68
2021/11/02 22:45:46;;;;;;;41.72;25.17;;;;;;;;;;5076158;28;20125;-68
2021/11/02 22:48:12;;;;;;;43.78;26.15;;;;;;;;;;5076261;28;20067;-67
2021/11/02 22:50:38;;;;;;;41.63;26.05;;;;;;;;;;5076217;28;20064;-68
2021/11/02 22:53:04;;;;;;;38.95;23.92;;;;;;;;;;5076217;28;20040;-68
2021/11/02 22:55:30;;;;;;;39.53;25.95;;;;;;;;;;5076234;28;20033;-68
2021/11/02 22:57:56;;;;;;;44.53;25.20;;;;;;;;;;5076107;28;20434;-64
2021/11/02 23:00:29;;;;;;;39.92;24.08;;;;;;;;;;5076334;28;20045;-63
2021/11/02 23:02:55;;;;;;;36.38;24.83;;;;;;;;;;5075999;28;20082;-64
2021/11/02 23:05:21;;;;;;;42.25;24.92;;;;;;;;;;5076244;28;20033;-64
2021/11/02 23:07:46;;;;;;;35.67;22.55;;;;;;;;;;5076043;28;20037;-63
2021/11/02 23:10:13;;;;;;;43.45;23.88;;;;;;;;;;5076120;28;20032;-64
2021/11/02 23:12:39;;;;;;;41.72;22.63;;;;;;;;;;5058028;28;20091;-64
2021/11/02 23:15:05;;;;;;;34.80;21.45;;;;;;;;;;5075887;28;20460;-64
2021/11/02 23:17:30;;;;;;;35.92;21.35;;;;;;;;;;5075754;28;20071;-65
2021/11/02 23:19:56;;;;;;;33.05;21.08;;;;;;;;;;5075943;28;20472;-64
2021/11/02 23:22:31;;;;;;;31.35;21.00;;;;;;;;;;5075590;28;20535;-68
2021/11/02 23:25:01;;;;;;;33.60;21.77;;;;;;;;;;5075762;28;20047;-67
2021/11/02 23:27:28;;;;;;;30.80;19.38;;;;;;;;;;5075799;28;20043;-68
2021/11/02 23:29:55;;;;;;;28.60;19.48;;;;;;;;;;5075748;28;20424;-68
2021/11/02 23:32:21;;;;;;;29.00;19.80;;;;;;;;;;5056920;28;20029;-70
2021/11/02 23:34:47;;;;;;;27.17;18.80;;;;;;;;;;5075288;28;20068;-70
2021/11/02 23:37:13;;;;;;;27.05;19.40;;;;;;;;;;5075749;28;20068;-70
2021/11/02 23:39:50;;;;;;;26.58;18.90;;;;;;;;;;5075691;28;20056;-69
2021/11/02 23:42:16;;;;;;;28.83;18.60;;;;;;;;;;5075068;28;20048;-70
2021/11/02 23:44:41;;;;;;;30.88;19.13;;;;;;;;;;5075330;28;20028;-70
2021/11/02 23:47:07;;;;;;;26.38;18.92;;;;;;;;;;5075289;28;20036;-69
2021/11/02 23:49:33;;;;;;;30.15;20.42;;;;;;;;;;5075003;28;20028;-70
2021/11/02 23:51:59;;;;;;;26.00;18.75;;;;;;;;;;5075244;28;20115;-69
2021/11/02 23:54:25;;;;;;;27.80;19.52;;;;;;;;;;5075344;28;20079;-69
2021/11/02 23:56:51;;;;;;;28.48;19.27;;;;;;;;;;5075014;28;20029;-70
2021/11/02 23:59:16;;;;;;;29.63;19.55;;;;;;;;;;5074961;28;20035;-69
